sensor_id;sensor_type;location;lat;lon;timestamp;pressure;altitude;pressure_sealevel;temperature;humidity
7966;BME280;4028;43.272;26.932;2022-07-23T00:01:54;99163.31;;;23.79;51.16
7966;BME280;4028;43.272;26.932;2022-07-23T00:04:20;99149.78;;;23.68;51.36
7966;BME280;4028;43.272;26.932;2022-07-23T00:06:45;99162.59;;;23.72;52.00
7966;BME280;4028;43.272;26.932;2022-07-23T00:09:11;99170.31;;;23.69;52.07
7966;BME280;4028;43.272;26.932;2022-07-23T00:11:36;99168.31;;;23.64;52.46
7966;BME280;4028;43.272;26.932;2022-07-23T00:14:02;99165.97;;;23.68;52.46
7966;BME280;4028;43.272;26.932;2022-07-23T00:16:27;99168.09;;;23.66;52.50
7966;BME280;4028;43.272;26.932;2022-07-23T00:18:53;99168.91;;;23.66;52.22
7966;BME280;4028;43.272;26.932;2022-07-23T00:21:18;99171.22;;;23.63;51.97
7966;BME280;4028;43.272;26.932;2022-07-23T00:23:44;99174.34;;;23.59;51.90
7966;BME280;4028;43.272;26.932;2022-07-23T00:26:09;99165.53;;;23.52;52.87
7966;BME280;4028;43.272;26.932;2022-07-23T00:28:35;99164.94;;;23.50;52.08
7966;BME280;4028;43.272;26.932;2022-07-23T00:31:00;99161.75;;;23.53;51.57
7966;BME280;4028;43.272;26.932;2022-07-23T00:33:26;99169.53;;;23.50;51.93
7966;BME280;4028;43.272;26.932;2022-07-23T00:35:51;99161.84;;;23.47;52.81
7966;BME280;4028;43.272;26.932;2022-07-23T00:38:17;99160.06;;;23.41;53.36
7966;BME280;4028;43.272;26.932;2022-07-23T00:40:42;99158.44;;;23.40;53.22
7966;BME280;4028;43.272;26.932;2022-07-23T00:43:08;99162.38;;;23.37;53.37
7966;BME280;4028;43.272;26.932;2022-07-23T00:45:33;99166.59;;;23.33;53.55
7966;BME280;4028;43.272;26.932;2022-07-23T00:48:00;99156.03;;;23.31;53.04
7966;BME280;4028;43.272;26.932;2022-07-23T00:50:25;99170.34;;;23.32;53.50
7966;BME280;4028;43.272;26.932;2022-07-23T00:52:52;99163.53;;;23.29;53.32
7966;BME280;4028;43.272;26.932;2022-07-23T00:55:17;99166.25;;;23.29;52.97
7966;BME280;4028;43.272;26.932;2022-07-23T00:57:43;99149.56;;;23.32;52.46
7966;BME280;4028;43.272;26.932;2022-07-23T01:00:13;99150.78;;;23.37;52.07
7966;BME280;4028;43.272;26.932;2022-07-23T01:02:39;99164.13;;;23.31;52.61
7966;BME280;4028;43.272;26.932;2022-07-23T01:05:05;99165.47;;;23.22;52.86
7966;BME280;4028;43.272;26.932;2022-07-23T01:07:32;99163.16;;;23.26;52.62
7966;BME280;4028;43.272;26.932;2022-07-23T01:09:58;99154.75;;;23.16;52.49
7966;BME280;4028;43.272;26.932;2022-07-23T01:12:24;99155.81;;;23.15;52.43
7966;BME280;4028;43.272;26.932;2022-07-23T01:14:59;99155.34;;;23.18;52.18
7966;BME280;4028;43.272;26.932;2022-07-23T01:17:25;99146.75;;;23.09;52.56
7966;BME280;4028;43.272;26.932;2022-07-23T01:19:51;99144.25;;;23.07;52.69
7966;BME280;4028;43.272;26.932;2022-07-23T01:22:18;99151.31;;;23.08;53.30
7966;BME280;4028;43.272;26.932;2022-07-23T01:24:45;99155.03;;;23.07;53.63
7966;BME280;4028;43.272;26.932;2022-07-23T01:27:10;99155.66;;;23.09;53.29
7966;BME280;4028;43.272;26.932;2022-07-23T01:29:38;99152.16;;;23.09;53.01
7966;BME280;4028;43.272;26.932;2022-07-23T01:32:04;99155.44;;;23.11;52.71
7966;BME280;4028;43.272;26.932;2022-07-23T01:34:30;99152.56;;;23.06;52.45
7966;BME280;4028;43.272;26.932;2022-07-23T01:36:55;99150.56;;;23.01;52.45
7966;BME280;4028;43.272;26.932;2022-07-23T01:39:21;99145.38;;;23.00;52.51
7966;BME280;4028;43.272;26.932;2022-07-23T01:41:46;99142.31;;;22.96;52.66
7966;BME280;4028;43.272;26.932;2022-07-23T01:44:12;99142.16;;;22.91;53.32
7966;BME280;4028;43.272;26.932;2022-07-23T01:46:38;99139.25;;;22.86;53.83
7966;BME280;4028;43.272;26.932;2022-07-23T01:49:04;99145.31;;;22.88;54.14
7966;BME280;4028;43.272;26.932;2022-07-23T01:51:29;99152.13;;;22.91;54.00
7966;BME280;4028;43.272;26.932;2022-07-23T01:53:55;99146.13;;;22.89;53.71
7966;BME280;4028;43.272;26.932;2022-07-23T01:56:20;99150.47;;;22.90;53.66
7966;BME280;4028;43.272;26.932;2022-07-23T01:58:47;99141.09;;;22.92;53.30
7966;BME280;4028;43.272;26.932;2022-07-23T02:01:13;99142.78;;;22.87;53.97
7966;BME280;4028;43.272;26.932;2022-07-23T02:03:38;99142.78;;;22.87;54.02
7966;BME280;4028;43.272;26.932;2022-07-23T02:06:04;99144.59;;;22.74;54.15
7966;BME280;4028;43.272;26.932;2022-07-23T02:08:29;99141.50;;;22.71;54.45
7966;BME280;4028;43.272;26.932;2022-07-23T02:10:55;99148.19;;;22.68;54.37
7966;BME280;4028;43.272;26.932;2022-07-23T02:13:20;99143.38;;;22.70;54.92
7966;BME280;4028;43.272;26.932;2022-07-23T02:15:47;99149.19;;;22.67;55.40
7966;BME280;4028;43.272;26.932;2022-07-23T02:18:12;99151.72;;;22.62;55.71
7966;BME280;4028;43.272;26.932;2022-07-23T02:20:38;99148.22;;;22.62;55.23
7966;BME280;4028;43.272;26.932;2022-07-23T02:23:04;99147.47;;;22.54;55.51
7966;BME280;4028;43.272;26.932;2022-07-23T02:25:29;99137.94;;;22.52;56.08
7966;BME280;4028;43.272;26.932;2022-07-23T02:27:55;99150.56;;;22.58;56.05
7966;BME280;4028;43.272;26.932;2022-07-23T02:30:20;99151.41;;;22.52;56.74
7966;BME280;4028;43.272;26.932;2022-07-23T02:32:46;99150.38;;;22.53;57.09
7966;BME280;4028;43.272;26.932;2022-07-23T02:35:11;99152.69;;;22.49;57.88
7966;BME280;4028;43.272;26.932;2022-07-23T02:37:37;99152.53;;;22.44;57.50
7966;BME280;4028;43.272;26.932;2022-07-23T02:40:02;99151.94;;;22.42;57.51
7966;BME280;4028;43.272;26.932;2022-07-23T02:42:28;99152.97;;;22.41;57.77
7966;BME280;4028;43.272;26.932;2022-07-23T02:44:53;99129.88;;;22.27;57.56
7966;BME280;4028;43.272;26.932;2022-07-23T02:47:19;99150.50;;;22.40;57.48
7966;BME280;4028;43.272;26.932;2022-07-23T02:49:44;99150.50;;;22.40;57.43
7966;BME280;4028;43.272;26.932;2022-07-23T02:52:10;99141.25;;;22.29;57.44
7966;BME280;4028;43.272;26.932;2022-07-23T02:54:36;99153.03;;;22.35;57.24
7966;BME280;4028;43.272;26.932;2022-07-23T02:57:02;99148.44;;;22.35;57.89
7966;BME280;4028;43.272;26.932;2022-07-23T02:59:27;99153.03;;;22.35;57.88
7966;BME280;4028;43.272;26.932;2022-07-23T03:01:53;99150.50;;;22.40;56.99
7966;BME280;4028;43.272;26.932;2022-07-23T03:04:18;99147.63;;;22.35;56.57
7966;BME280;4028;43.272;26.932;2022-07-23T03:06:44;99149.50;;;22.34;57.30
7966;BME280;4028;43.272;26.932;2022-07-23T03:09:09;99155.66;;;22.41;57.30
7966;BME280;4028;43.272;26.932;2022-07-23T03:11:35;99157.09;;;22.44;58.26
7966;BME280;4028;43.272;26.932;2022-07-23T03:14:00;99157.84;;;22.51;57.97
7966;BME280;4028;43.272;26.932;2022-07-23T03:16:25;99162.25;;;22.45;57.95
7966;BME280;4028;43.272;26.932;2022-07-23T03:18:51;99163.53;;;22.43;58.15
7966;BME280;4028;43.272;26.932;2022-07-23T03:21:16;99153.84;;;22.35;59.57
7966;BME280;4028;43.272;26.932;2022-07-23T03:23:42;99172.81;;;22.47;59.21
7966;BME280;4028;43.272;26.932;2022-07-23T03:26:07;99172.38;;;22.50;58.81
7966;BME280;4028;43.272;26.932;2022-07-23T03:28:33;99174.66;;;22.53;58.66
7966;BME280;4028;43.272;26.932;2022-07-23T03:30:58;99177.94;;;22.55;60.02
7966;BME280;4028;43.272;26.932;2022-07-23T03:33:24;99174.34;;;22.61;58.91
7966;BME280;4028;43.272;26.932;2022-07-23T03:35:50;99180.97;;;22.65;58.87
7966;BME280;4028;43.272;26.932;2022-07-23T03:38:15;99173.63;;;22.72;61.34
7966;BME280;4028;43.272;26.932;2022-07-23T03:40:41;99184.91;;;22.88;61.46
7966;BME280;4028;43.272;26.932;2022-07-23T03:43:07;99171.25;;;22.89;58.20
7966;BME280;4028;43.272;26.932;2022-07-23T03:45:33;99170.25;;;23.02;59.35
7966;BME280;4028;43.272;26.932;2022-07-23T03:47:58;99184.50;;;23.27;58.61
7966;BME280;4028;43.272;26.932;2022-07-23T03:50:24;99174.44;;;23.53;58.04
7966;BME280;4028;43.272;26.932;2022-07-23T03:52:50;99177.34;;;23.88;57.97
7966;BME280;4028;43.272;26.932;2022-07-23T03:55:15;99173.19;;;24.16;57.69
7966;BME280;4028;43.272;26.932;2022-07-23T03:57:41;99173.78;;;24.48;57.41
7966;BME280;4028;43.272;26.932;2022-07-23T04:00:08;99175.06;;;24.80;56.51
7966;BME280;4028;43.272;26.932;2022-07-23T04:02:39;99171.41;;;25.22;55.68
7966;BME280;4028;43.272;26.932;2022-07-23T04:05:05;99182.50;;;25.60;54.91
7966;BME280;4028;43.272;26.932;2022-07-23T04:07:31;99176.78;;;25.85;54.65
7966;BME280;4028;43.272;26.932;2022-07-23T04:09:57;99177.44;;;26.21;53.99
7966;BME280;4028;43.272;26.932;2022-07-23T04:12:23;99194.41;;;26.62;52.03
7966;BME280;4028;43.272;26.932;2022-07-23T04:14:49;99186.63;;;27.04;49.76
7966;BME280;4028;43.272;26.932;2022-07-23T04:17:14;99196.44;;;27.44;48.12
7966;BME280;4028;43.272;26.932;2022-07-23T04:19:40;99193.03;;;27.76;46.94
7966;BME280;4028;43.272;26.932;2022-07-23T04:22:10;99188.84;;;28.17;46.29
7966;BME280;4028;43.272;26.932;2022-07-23T04:24:36;99181.88;;;28.58;45.52
7966;BME280;4028;43.272;26.932;2022-07-23T04:27:02;99189.53;;;28.98;44.41
7966;BME280;4028;43.272;26.932;2022-07-23T04:29:28;99207.16;;;29.33;42.88
7966;BME280;4028;43.272;26.932;2022-07-23T04:31:54;99197.25;;;29.69;42.62
7966;BME280;4028;43.272;26.932;2022-07-23T04:34:19;99199.78;;;30.07;41.32
7966;BME280;4028;43.272;26.932;2022-07-23T04:36:45;99206.97;;;30.64;41.12
7966;BME280;4028;43.272;26.932;2022-07-23T04:39:10;99197.59;;;31.21;40.09
7966;BME280;4028;43.272;26.932;2022-07-23T04:41:36;99206.19;;;31.74;38.76
7966;BME280;4028;43.272;26.932;2022-07-23T04:44:02;99207.03;;;32.14;37.87
7966;BME280;4028;43.272;26.932;2022-07-23T04:46:27;99199.47;;;32.45;37.19
7966;BME280;4028;43.272;26.932;2022-07-23T04:48:53;99200.56;;;32.78;37.14
7966;BME280;4028;43.272;26.932;2022-07-23T04:51:19;99207.09;;;33.11;36.43
7966;BME280;4028;43.272;26.932;2022-07-23T04:53:44;99194.41;;;33.44;35.86
7966;BME280;4028;43.272;26.932;2022-07-23T04:56:10;99199.81;;;33.73;35.21
7966;BME280;4028;43.272;26.932;2022-07-23T04:58:35;99200.88;;;33.96;34.98
7966;BME280;4028;43.272;26.932;2022-07-23T05:01:01;99199.69;;;34.21;33.86
7966;BME280;4028;43.272;26.932;2022-07-23T05:03:27;99197.81;;;34.17;32.97
7966;BME280;4028;43.272;26.932;2022-07-23T05:05:52;99203.81;;;34.19;33.05
7966;BME280;4028;43.272;26.932;2022-07-23T05:08:18;99201.69;;;33.97;34.17
7966;BME280;4028;43.272;26.932;2022-07-23T05:10:43;99204.94;;;33.32;35.24
7966;BME280;4028;43.272;26.932;2022-07-23T05:13:09;99203.56;;;32.47;35.25
7966;BME280;4028;43.272;26.932;2022-07-23T05:15:34;99210.53;;;31.75;37.22
7966;BME280;4028;43.272;26.932;2022-07-23T05:18:00;99218.13;;;31.13;37.71
7966;BME280;4028;43.272;26.932;2022-07-23T05:20:25;99212.69;;;30.52;39.61
7966;BME280;4028;43.272;26.932;2022-07-23T05:22:51;99207.97;;;30.07;40.81
7966;BME280;4028;43.272;26.932;2022-07-23T05:25:16;99210.28;;;29.57;42.21
7966;BME280;4028;43.272;26.932;2022-07-23T05:27:42;99203.84;;;29.26;42.61
7966;BME280;4028;43.272;26.932;2022-07-23T05:30:08;99211.38;;;29.09;44.05
7966;BME280;4028;43.272;26.932;2022-07-23T05:32:33;99211.00;;;28.95;44.04
7966;BME280;4028;43.272;26.932;2022-07-23T05:34:59;99205.28;;;28.96;43.77
7966;BME280;4028;43.272;26.932;2022-07-23T05:37:25;99196.38;;;29.06;44.05
7966;BME280;4028;43.272;26.932;2022-07-23T05:39:50;99205.97;;;29.14;44.54
7966;BME280;4028;43.272;26.932;2022-07-23T05:42:16;99206.91;;;29.40;44.69
7966;BME280;4028;43.272;26.932;2022-07-23T05:44:41;99209.19;;;29.58;45.39
7966;BME280;4028;43.272;26.932;2022-07-23T05:47:07;99213.03;;;29.62;44.70
7966;BME280;4028;43.272;26.932;2022-07-23T05:49:32;99211.38;;;29.56;44.19
7966;BME280;4028;43.272;26.932;2022-07-23T05:51:58;99211.03;;;29.52;44.21
7966;BME280;4028;43.272;26.932;2022-07-23T05:54:24;99208.38;;;29.58;44.15
7966;BME280;4028;43.272;26.932;2022-07-23T05:56:49;99207.34;;;29.74;44.66
7966;BME280;4028;43.272;26.932;2022-07-23T05:59:15;99207.09;;;29.81;44.27
7966;BME280;4028;43.272;26.932;2022-07-23T06:01:40;99201.91;;;29.74;45.25
7966;BME280;4028;43.272;26.932;2022-07-23T06:04:07;99210.38;;;29.83;46.39
7966;BME280;4028;43.272;26.932;2022-07-23T06:06:32;99212.56;;;29.81;45.22
7966;BME280;4028;43.272;26.932;2022-07-23T06:08:57;99219.31;;;29.73;45.29
7966;BME280;4028;43.272;26.932;2022-07-23T06:11:23;99215.31;;;29.91;46.03
7966;BME280;4028;43.272;26.932;2022-07-23T06:13:48;99221.63;;;30.07;46.51
7966;BME280;4028;43.272;26.932;2022-07-23T06:16:14;99219.78;;;30.22;45.51
7966;BME280;4028;43.272;26.932;2022-07-23T06:18:39;99220.06;;;30.36;46.77
7966;BME280;4028;43.272;26.932;2022-07-23T06:21:05;99221.44;;;30.64;46.38
7966;BME280;4028;43.272;26.932;2022-07-23T06:23:30;99224.19;;;30.74;43.15
7966;BME280;4028;43.272;26.932;2022-07-23T06:25:56;99218.16;;;30.67;43.60
7966;BME280;4028;43.272;26.932;2022-07-23T06:28:21;99219.81;;;30.73;43.48
7966;BME280;4028;43.272;26.932;2022-07-23T06:30:47;99223.34;;;30.99;44.20
7966;BME280;4028;43.272;26.932;2022-07-23T06:33:13;99229.28;;;31.22;43.57
7966;BME280;4028;43.272;26.932;2022-07-23T06:35:39;99214.25;;;31.35;42.12
7966;BME280;4028;43.272;26.932;2022-07-23T06:38:04;99217.78;;;31.40;43.16
7966;BME280;4028;43.272;26.932;2022-07-23T06:40:29;99216.31;;;31.63;42.97
7966;BME280;4028;43.272;26.932;2022-07-23T06:42:55;99216.00;;;31.85;42.44
7966;BME280;4028;43.272;26.932;2022-07-23T06:45:20;99202.84;;;31.87;41.17
7966;BME280;4028;43.272;26.932;2022-07-23T06:47:46;99212.56;;;32.08;41.47
7966;BME280;4028;43.272;26.932;2022-07-23T06:50:11;99213.13;;;32.05;41.46
7966;BME280;4028;43.272;26.932;2022-07-23T06:52:37;99209.63;;;32.00;39.77
7966;BME280;4028;43.272;26.932;2022-07-23T06:55:03;99211.88;;;32.32;39.54
7966;BME280;4028;43.272;26.932;2022-07-23T06:57:28;99212.75;;;32.62;39.45
7966;BME280;4028;43.272;26.932;2022-07-23T06:59:54;99217.47;;;32.85;39.17
7966;BME280;4028;43.272;26.932;2022-07-23T07:02:19;99215.81;;;32.89;38.50
7966;BME280;4028;43.272;26.932;2022-07-23T07:04:45;99212.97;;;32.99;39.85
7966;BME280;4028;43.272;26.932;2022-07-23T07:07:11;99220.78;;;33.11;37.57
7966;BME280;4028;43.272;26.932;2022-07-23T07:09:37;99221.94;;;33.34;37.29
7966;BME280;4028;43.272;26.932;2022-07-23T07:12:03;99221.44;;;33.27;37.24
7966;BME280;4028;43.272;26.932;2022-07-23T07:14:29;99220.09;;;33.53;38.79
7966;BME280;4028;43.272;26.932;2022-07-23T07:16:54;99219.97;;;33.82;37.30
7966;BME280;4028;43.272;26.932;2022-07-23T07:19:20;99217.47;;;33.62;35.98
7966;BME280;4028;43.272;26.932;2022-07-23T07:21:45;99214.69;;;33.67;36.64
7966;BME280;4028;43.272;26.932;2022-07-23T07:24:11;99218.38;;;34.00;35.87
7966;BME280;4028;43.272;26.932;2022-07-23T07:26:36;99222.22;;;34.18;35.70
7966;BME280;4028;43.272;26.932;2022-07-23T07:29:04;99222.22;;;34.56;34.14
7966;BME280;4028;43.272;26.932;2022-07-23T07:31:29;99224.78;;;34.14;33.64
7966;BME280;4028;43.272;26.932;2022-07-23T07:33:54;99221.13;;;34.57;34.16
7966;BME280;4028;43.272;26.932;2022-07-23T07:36:22;99222.94;;;34.94;35.09
7966;BME280;4028;43.272;26.932;2022-07-23T07:38:48;99218.91;;;35.05;32.22
7966;BME280;4028;43.272;26.932;2022-07-23T07:41:13;99222.81;;;35.46;31.47
7966;BME280;4028;43.272;26.932;2022-07-23T07:43:39;99225.84;;;35.72;30.78
7966;BME280;4028;43.272;26.932;2022-07-23T07:46:05;99227.41;;;35.50;28.59
7966;BME280;4028;43.272;26.932;2022-07-23T07:48:35;99226.44;;;35.82;28.26
7966;BME280;4028;43.272;26.932;2022-07-23T07:51:01;99225.53;;;35.87;28.20
7966;BME280;4028;43.272;26.932;2022-07-23T07:53:26;99223.59;;;36.24;27.65
7966;BME280;4028;43.272;26.932;2022-07-23T07:55:51;99223.38;;;36.34;26.80
7966;BME280;4028;43.272;26.932;2022-07-23T07:58:17;99218.47;;;36.44;27.23
7966;BME280;4028;43.272;26.932;2022-07-23T08:00:42;99215.50;;;36.41;29.06
7966;BME280;4028;43.272;26.932;2022-07-23T08:03:08;99223.41;;;36.56;29.22
7966;BME280;4028;43.272;26.932;2022-07-23T08:05:33;99215.91;;;36.70;27.06
7966;BME280;4028;43.272;26.932;2022-07-23T08:07:59;99219.16;;;36.73;25.81
7966;BME280;4028;43.272;26.932;2022-07-23T08:10:25;99225.41;;;36.42;25.35
7966;BME280;4028;43.272;26.932;2022-07-23T08:12:53;99226.84;;;36.62;25.40
7966;BME280;4028;43.272;26.932;2022-07-23T08:15:19;99220.16;;;36.77;25.71
7966;BME280;4028;43.272;26.932;2022-07-23T08:17:47;99217.31;;;36.90;27.04
7966;BME280;4028;43.272;26.932;2022-07-23T08:20:14;99214.78;;;37.03;26.55
7966;BME280;4028;43.272;26.932;2022-07-23T08:22:53;99226.81;;;36.84;25.36
7966;BME280;4028;43.272;26.932;2022-07-23T08:25:26;99221.56;;;36.74;25.83
7966;BME280;4028;43.272;26.932;2022-07-23T08:27:53;99220.19;;;36.85;26.04
7966;BME280;4028;43.272;26.932;2022-07-23T08:30:19;99210.72;;;37.00;26.40
7966;BME280;4028;43.272;26.932;2022-07-23T08:35:26;99215.34;;;37.62;26.65
7966;BME280;4028;43.272;26.932;2022-07-23T08:37:52;99211.16;;;37.64;26.65
7966;BME280;4028;43.272;26.932;2022-07-23T08:40:18;99212.66;;;37.88;24.46
7966;BME280;4028;43.272;26.932;2022-07-23T08:42:47;99208.44;;;37.90;25.86
7966;BME280;4028;43.272;26.932;2022-07-23T08:45:16;99219.75;;;37.63;23.39
7966;BME280;4028;43.272;26.932;2022-07-23T08:47:41;99219.69;;;37.45;25.22
7966;BME280;4028;43.272;26.932;2022-07-23T08:50:08;99217.44;;;37.47;25.20
7966;BME280;4028;43.272;26.932;2022-07-23T08:52:36;99218.59;;;37.55;24.79
7966;BME280;4028;43.272;26.932;2022-07-23T08:55:01;99215.19;;;37.67;25.29
7966;BME280;4028;43.272;26.932;2022-07-23T08:57:27;99213.28;;;37.67;24.51
7966;BME280;4028;43.272;26.932;2022-07-23T08:59:52;99218.13;;;37.70;24.29
7966;BME280;4028;43.272;26.932;2022-07-23T09:02:18;99209.31;;;37.51;24.29
7966;BME280;4028;43.272;26.932;2022-07-23T09:04:43;99204.81;;;37.64;24.63
7966;BME280;4028;43.272;26.932;2022-07-23T09:07:09;99202.06;;;37.72;24.96
7966;BME280;4028;43.272;26.932;2022-07-23T09:09:35;99217.66;;;37.68;24.75
7966;BME280;4028;43.272;26.932;2022-07-23T09:12:08;99215.56;;;37.74;25.29
7966;BME280;4028;43.272;26.932;2022-07-23T09:14:39;99217.09;;;37.49;25.41
7966;BME280;4028;43.272;26.932;2022-07-23T09:17:17;99209.16;;;37.08;26.00
7966;BME280;4028;43.272;26.932;2022-07-23T09:19:44;99205.50;;;36.67;25.28
7966;BME280;4028;43.272;26.932;2022-07-23T09:22:36;99203.22;;;36.92;27.24
7966;BME280;4028;43.272;26.932;2022-07-23T09:25:15;99210.38;;;37.33;25.47
7966;BME280;4028;43.272;26.932;2022-07-23T09:27:55;99212.28;;;37.24;26.06
7966;BME280;4028;43.272;26.932;2022-07-23T09:30:26;99207.44;;;37.29;24.94
7966;BME280;4028;43.272;26.932;2022-07-23T09:33:09;99198.94;;;37.57;26.58
7966;BME280;4028;43.272;26.932;2022-07-23T09:35:55;99211.25;;;37.42;26.16
7966;BME280;4028;43.272;26.932;2022-07-23T09:38:23;99201.22;;;37.55;25.99
7966;BME280;4028;43.272;26.932;2022-07-23T09:41:08;99204.19;;;37.76;25.68
7966;BME280;4028;43.272;26.932;2022-07-23T09:43:36;99199.69;;;37.97;25.36
7966;BME280;4028;43.272;26.932;2022-07-23T09:46:27;99190.56;;;37.96;24.63
7966;BME280;4028;43.272;26.932;2022-07-23T09:48:55;99191.34;;;37.80;24.50
7966;BME280;4028;43.272;26.932;2022-07-23T09:51:23;99187.47;;;37.98;24.58
7966;BME280;4028;43.272;26.932;2022-07-23T09:53:52;99187.81;;;38.22;25.79
7966;BME280;4028;43.272;26.932;2022-07-23T09:56:20;99180.84;;;38.16;23.97
7966;BME280;4028;43.272;26.932;2022-07-23T09:58:49;99174.50;;;38.24;23.97
7966;BME280;4028;43.272;26.932;2022-07-23T10:01:16;99171.09;;;38.36;24.78
7966;BME280;4028;43.272;26.932;2022-07-23T10:03:42;99172.88;;;38.32;24.41
7966;BME280;4028;43.272;26.932;2022-07-23T10:06:09;99187.22;;;38.34;24.19
7966;BME280;4028;43.272;26.932;2022-07-23T10:08:35;99172.22;;;38.27;24.87
7966;BME280;4028;43.272;26.932;2022-07-23T10:11:04;99172.72;;;38.20;24.98
7966;BME280;4028;43.272;26.932;2022-07-23T10:13:30;99152.06;;;38.17;26.31
7966;BME280;4028;43.272;26.932;2022-07-23T10:16:14;99155.97;;;38.34;26.38
7966;BME280;4028;43.272;26.932;2022-07-23T10:18:40;99159.41;;;38.39;26.41
7966;BME280;4028;43.272;26.932;2022-07-23T10:21:07;99158.19;;;38.66;25.50
7966;BME280;4028;43.272;26.932;2022-07-23T10:23:39;99154.00;;;38.26;25.11
7966;BME280;4028;43.272;26.932;2022-07-23T10:31:56;99145.09;;;38.29;25.04
7966;BME280;4028;43.272;26.932;2022-07-23T10:37:23;99142.47;;;38.23;24.02
7966;BME280;4028;43.272;26.932;2022-07-23T10:40:17;99135.34;;;38.14;24.67
7966;BME280;4028;43.272;26.932;2022-07-23T10:42:44;99134.69;;;38.08;25.16
7966;BME280;4028;43.272;26.932;2022-07-23T10:45:35;99134.88;;;38.29;24.98
7966;BME280;4028;43.272;26.932;2022-07-23T10:48:31;99123.63;;;38.08;26.04
7966;BME280;4028;43.272;26.932;2022-07-23T10:51:07;99119.75;;;38.09;25.47
7966;BME280;4028;43.272;26.932;2022-07-23T10:56:48;99121.34;;;38.28;25.65
7966;BME280;4028;43.272;26.932;2022-07-23T10:59:04;99102.34;;;37.65;25.08
7966;BME280;4028;43.272;26.932;2022-07-23T11:01:37;99109.81;;;37.82;26.43
7966;BME280;4028;43.272;26.932;2022-07-23T11:04:04;99101.91;;;37.89;26.49
7966;BME280;4028;43.272;26.932;2022-07-23T11:09:25;99097.66;;;38.01;26.32
7966;BME280;4028;43.272;26.932;2022-07-23T11:15:02;99099.94;;;37.98;25.91
7966;BME280;4028;43.272;26.932;2022-07-23T11:17:29;99096.84;;;38.00;25.96
7966;BME280;4028;43.272;26.932;2022-07-23T11:25:08;99085.13;;;38.12;25.94
7966;BME280;4028;43.272;26.932;2022-07-23T11:30:06;99090.81;;;38.07;25.99
7966;BME280;4028;43.272;26.932;2022-07-23T11:32:34;99088.06;;;38.07;26.13
7966;BME280;4028;43.272;26.932;2022-07-23T11:35:03;99090.19;;;38.01;26.00
7966;BME280;4028;43.272;26.932;2022-07-23T11:37:44;99078.66;;;37.99;25.33
7966;BME280;4028;43.272;26.932;2022-07-23T11:40:12;99084.81;;;37.70;25.47
7966;BME280;4028;43.272;26.932;2022-07-23T11:42:40;99076.38;;;37.75;26.41
7966;BME280;4028;43.272;26.932;2022-07-23T11:45:15;99079.31;;;37.96;25.94
7966;BME280;4028;43.272;26.932;2022-07-23T11:47:41;99069.22;;;37.91;26.12
7966;BME280;4028;43.272;26.932;2022-07-23T11:50:07;99073.91;;;37.82;25.84
7966;BME280;4028;43.272;26.932;2022-07-23T11:52:32;99073.31;;;37.85;25.37
7966;BME280;4028;43.272;26.932;2022-07-23T11:55:09;99075.41;;;37.62;25.48
7966;BME280;4028;43.272;26.932;2022-07-23T11:57:37;99069.69;;;37.41;24.94
7966;BME280;4028;43.272;26.932;2022-07-23T12:02:37;99070.06;;;37.57;25.97
7966;BME280;4028;43.272;26.932;2022-07-23T12:05:04;99055.59;;;37.43;26.46
7966;BME280;4028;43.272;26.932;2022-07-23T12:07:40;99068.41;;;37.39;26.38
7966;BME280;4028;43.272;26.932;2022-07-23T12:12:48;99060.94;;;37.48;26.26
7966;BME280;4028;43.272;26.932;2022-07-23T12:15:15;99068.56;;;37.42;26.21
7966;BME280;4028;43.272;26.932;2022-07-23T12:17:44;99064.63;;;37.35;26.74
7966;BME280;4028;43.272;26.932;2022-07-23T12:20:16;99052.91;;;37.03;25.26
7966;BME280;4028;43.272;26.932;2022-07-23T12:22:46;99063.16;;;36.80;26.61
7966;BME280;4028;43.272;26.932;2022-07-23T12:27:38;99051.38;;;37.37;24.74
7966;BME280;4028;43.272;26.932;2022-07-23T12:32:51;99040.41;;;36.97;25.60
7966;BME280;4028;43.272;26.932;2022-07-23T12:35:17;99029.94;;;36.85;26.12
7966;BME280;4028;43.272;26.932;2022-07-23T12:37:45;99037.66;;;36.97;26.26
7966;BME280;4028;43.272;26.932;2022-07-23T12:42:51;99035.91;;;37.18;25.90
7966;BME280;4028;43.272;26.932;2022-07-23T12:45:18;99034.28;;;37.17;25.76
7966;BME280;4028;43.272;26.932;2022-07-23T12:48:04;99040.41;;;36.97;26.47
7966;BME280;4028;43.272;26.932;2022-07-23T12:50:34;99033.34;;;36.82;27.29
7966;BME280;4028;43.272;26.932;2022-07-23T12:53:21;99036.59;;;36.76;26.87
7966;BME280;4028;43.272;26.932;2022-07-23T12:55:48;99034.53;;;36.90;27.32
7966;BME280;4028;43.272;26.932;2022-07-23T12:58:20;99034.50;;;36.81;26.34
7966;BME280;4028;43.272;26.932;2022-07-23T13:00:59;99027.84;;;36.82;26.93
7966;BME280;4028;43.272;26.932;2022-07-23T13:03:40;99027.56;;;36.92;27.06
7966;BME280;4028;43.272;26.932;2022-07-23T13:06:10;99026.88;;;36.87;26.46
7966;BME280;4028;43.272;26.932;2022-07-23T13:08:38;99022.81;;;36.76;27.35
7966;BME280;4028;43.272;26.932;2022-07-23T13:11:05;99019.56;;;36.82;27.13
7966;BME280;4028;43.272;26.932;2022-07-23T13:13:34;99016.97;;;36.77;26.38
7966;BME280;4028;43.272;26.932;2022-07-23T13:16:00;99005.13;;;36.77;27.23
7966;BME280;4028;43.272;26.932;2022-07-23T13:18:27;99016.66;;;36.87;26.82
7966;BME280;4028;43.272;26.932;2022-07-23T13:20:53;99012.97;;;36.92;26.69
7966;BME280;4028;43.272;26.932;2022-07-23T13:23:20;99001.41;;;36.81;27.63
7966;BME280;4028;43.272;26.932;2022-07-23T13:25:46;99009.97;;;36.80;27.35
7966;BME280;4028;43.272;26.932;2022-07-23T13:28:13;99001.56;;;36.85;26.92
7966;BME280;4028;43.272;26.932;2022-07-23T13:30:40;99002.56;;;36.89;27.44
7966;BME280;4028;43.272;26.932;2022-07-23T13:33:05;98998.06;;;36.93;26.82
7966;BME280;4028;43.272;26.932;2022-07-23T13:35:32;99001.44;;;36.90;26.95
7966;BME280;4028;43.272;26.932;2022-07-23T13:37:58;98999.94;;;36.84;27.37
7966;BME280;4028;43.272;26.932;2022-07-23T13:40:24;99004.47;;;36.80;27.32
7966;BME280;4028;43.272;26.932;2022-07-23T13:42:49;98998.47;;;36.78;26.60
7966;BME280;4028;43.272;26.932;2022-07-23T13:45:15;98992.31;;;36.72;27.26
7966;BME280;4028;43.272;26.932;2022-07-23T13:47:40;98994.38;;;36.58;28.44
7966;BME280;4028;43.272;26.932;2022-07-23T13:50:06;98990.47;;;36.59;27.04
7966;BME280;4028;43.272;26.932;2022-07-23T13:52:32;98994.69;;;36.56;26.19